createdAt,value
2022-10-01T00:02:18.991Z,4.80
2022-10-01T00:12:18.926Z,4.70
2022-10-01T00:22:18.732Z,5.00
2022-10-01T00:32:18.343Z,4.70
2022-10-01T00:42:18.086Z,4.70
2022-10-01T00:52:17.835Z,4.70
2022-10-01T01:02:17.665Z,4.60
2022-10-01T01:12:17.425Z,4.30
2022-10-01T01:22:17.245Z,5.10
2022-10-01T01:32:17.005Z,4.70
2022-10-01T01:42:16.795Z,4.70
2022-10-01T01:52:16.562Z,5.00
2022-10-01T02:02:20.636Z,5.00
2022-10-01T02:12:16.312Z,5.20
2022-10-01T02:22:15.873Z,4.30
2022-10-01T02:32:15.411Z,4.90
2022-10-01T02:42:15.071Z,4.50
2022-10-01T02:52:14.838Z,4.70
2022-10-01T03:02:14.518Z,4.30
2022-10-01T03:12:14.018Z,4.80
2022-10-01T03:22:13.690Z,4.50
2022-10-01T03:32:13.493Z,4.70
2022-10-01T03:42:13.304Z,4.30
2022-10-01T03:52:13.036Z,4.30
2022-10-01T04:02:13.205Z,4.40
2022-10-01T04:12:12.641Z,4.50
2022-10-01T04:22:12.290Z,3.70
2022-10-01T04:32:12.063Z,3.40
2022-10-01T04:42:11.608Z,3.40
2022-10-01T04:52:11.315Z,3.40
2022-10-01T05:02:11.091Z,2.80
2022-10-01T05:12:10.713Z,2.50
2022-10-01T05:22:10.556Z,2.60
2022-10-01T05:32:10.199Z,2.30
2022-10-01T05:42:10.160Z,2.20
2022-10-01T05:52:09.339Z,2.30
2022-10-01T06:02:09.349Z,2.10
2022-10-01T06:12:08.845Z,1.90
2022-10-01T06:22:08.674Z,1.80
2022-10-01T06:32:08.224Z,1.90
2022-10-01T06:42:07.892Z,2.00
2022-10-01T06:52:07.384Z,2.10
2022-10-01T07:02:07.163Z,2.10
2022-10-01T07:12:07.122Z,2.00
2022-10-01T07:22:06.681Z,1.90
2022-10-01T07:32:06.255Z,1.90
2022-10-01T07:42:06.004Z,2.30
2022-10-01T07:52:08.641Z,2.10
2022-10-01T08:02:05.705Z,2.40
2022-10-01T08:12:05.218Z,2.40
2022-10-01T08:22:04.772Z,2.40
2022-10-01T08:32:04.688Z,2.60
2022-10-01T08:42:04.339Z,2.80
2022-10-01T08:52:03.848Z,4.00
2022-10-01T09:02:03.587Z,3.20
2022-10-01T09:12:03.294Z,3.50
2022-10-01T09:22:03.243Z,5.00
2022-10-01T09:32:03.035Z,4.10
2022-10-01T09:42:03.073Z,4.00
2022-10-01T09:52:02.606Z,4.30
2022-10-01T10:02:02.552Z,4.40
2022-10-01T10:12:02.125Z,4.00
2022-10-01T10:22:02.144Z,4.20
2022-10-01T10:32:01.973Z,4.40
2022-10-01T10:42:01.733Z,3.30
2022-10-01T10:52:01.596Z,3.30
2022-10-01T11:02:01.633Z,4.00
2022-10-01T11:12:01.392Z,4.80
2022-10-01T11:22:01.374Z,4.50
2022-10-01T11:32:01.330Z,4.50
2022-10-01T11:42:01.315Z,4.40
2022-10-01T11:52:01.362Z,4.30
2022-10-01T12:02:01.520Z,3.90
2022-10-01T12:12:01.537Z,4.50
2022-10-01T12:22:01.636Z,4.70
2022-10-01T12:32:01.727Z,4.50
2022-10-01T12:42:02.145Z,4.80
2022-10-01T12:52:01.925Z,3.90
2022-10-01T13:02:07.260Z,5.40
2022-10-01T13:12:07.054Z,4.20
2022-10-01T13:22:06.553Z,3.70
2022-10-01T13:32:06.005Z,4.00
2022-10-01T13:42:05.662Z,4.60
2022-10-01T13:52:05.304Z,4.90
2022-10-01T14:02:05.004Z,5.20
2022-10-01T14:12:04.713Z,5.10
2022-10-01T14:22:04.211Z,4.30
2022-10-01T14:32:03.853Z,4.30
2022-10-01T14:42:03.647Z,4.30
2022-10-01T14:52:03.115Z,4.10
2022-10-01T15:02:03.107Z,4.50
2022-10-01T15:12:03.056Z,3.80
2022-10-01T15:22:03.025Z,3.80
2022-10-01T15:32:02.860Z,3.90
2022-10-01T15:42:02.909Z,3.40
2022-10-01T15:52:03.099Z,3.40
2022-10-01T16:02:03.431Z,3.90
2022-10-01T16:12:03.140Z,6.00
2022-10-01T16:22:03.203Z,3.40
2022-10-01T16:32:03.365Z,4.10
2022-10-01T16:42:22.620Z,3.30
2022-10-01T16:52:03.258Z,2.90
2022-10-01T17:02:03.279Z,3.10
2022-10-01T17:12:03.393Z,3.50
2022-10-01T17:22:03.439Z,3.30
2022-10-01T17:32:03.431Z,3.30
2022-10-01T17:42:03.175Z,3.40
2022-10-01T17:52:03.089Z,3.70
2022-10-01T18:02:10.573Z,3.30
2022-10-01T18:12:03.059Z,3.80
2022-10-01T18:22:03.179Z,3.50
2022-10-01T18:32:03.019Z,3.50
2022-10-01T18:42:02.993Z,4.00
2022-10-01T18:52:02.914Z,3.30
2022-10-01T19:02:02.927Z,3.60
2022-10-01T19:12:02.708Z,6.10
2022-10-01T19:22:02.605Z,3.30
2022-10-01T19:32:02.518Z,3.80
2022-10-01T19:42:02.454Z,4.30
2022-10-01T19:52:02.378Z,3.60
2022-10-01T20:02:03.620Z,3.40
2022-10-01T20:12:02.145Z,4.00
2022-10-01T20:22:02.205Z,4.10
2022-10-01T20:32:02.055Z,3.90
2022-10-01T20:42:01.891Z,3.80
2022-10-01T20:52:01.597Z,3.10
2022-10-01T21:02:01.512Z,3.70
2022-10-01T21:12:01.442Z,3.60
2022-10-01T21:22:01.098Z,3.60
2022-10-01T21:32:01.148Z,3.90
2022-10-01T21:42:00.685Z,3.90
2022-10-01T21:52:00.613Z,3.80
2022-10-01T22:02:00.518Z,4.00
2022-10-01T22:12:00.107Z,3.70
2022-10-01T22:21:59.641Z,4.10
2022-10-01T22:31:59.437Z,4.20
2022-10-01T22:41:59.534Z,4.00
2022-10-01T22:51:58.920Z,4.70
2022-10-01T23:01:58.925Z,4.40
2022-10-01T23:11:58.473Z,4.30
2022-10-01T23:21:58.554Z,4.10
2022-10-01T23:31:57.990Z,4.10
2022-10-01T23:41:57.889Z,5.10
2022-10-01T23:51:57.476Z,4.90
